»·PEaware :: WAT306 KBUR-KSJC

WAT306 :: KBUR-KSJC

FLIGHT INFORMATION

Flight Status: Arrived
Operator:
Walker Air Transport
More flights by this operator :: More flights under this callsign
Pilot: Ethan S. (29221)
Aircraft: SOCATA TBM-900
(TBM9)
More flights by this aircraft type
Origin: KBUR Bob Hope-Burbank
United States
Destination: KSJC Mineta San Jose Intl
United States
More flights between these airports :: More routes between these airports
Route: VNY3 GMN GILRO
File this flight plan on PilotEdge
Remarks:
Altitude:
(Current/Filed)
24,000ft
Speed:
(Current/Filed)
315kts
Departed: 20-Nov-20 04:38 PM
Arrived: 20-Nov-20 05:45 PM
Distance/Time
Traveled:
257nm/1:07
Distance/Time
To Go:
Arrived

Flight Plot

Page will automatically refresh every two minutes.

Flight plan parsing failed; only flown route is shown


Map Options




Map Legend


Flown Route
Filed Route
Departure Airport
Arrival Airport
Navaid (VOR, NDB)
Fix

Horizontal Profiles

Position Reports

Time Latitude Longitude Heading Altitude Ground
Speed
20-Nov-20 16:23 34.200163 -118.359466 346 721ft 0kts
20-Nov-20 16:24 34.200163 -118.359466 346 721ft 0kts
20-Nov-20 16:25 34.200164 -118.359466 346 721ft 0kts
20-Nov-20 16:26 34.200164 -118.359466 346 721ft 0kts
20-Nov-20 16:27 34.200164 -118.359466 346 721ft 0kts
20-Nov-20 16:28 34.200164 -118.359466 346 721ft 0kts
20-Nov-20 16:29 34.200164 -118.359466 346 721ft 0kts
20-Nov-20 16:30 34.200164 -118.359466 346 721ft 0kts
20-Nov-20 16:31 34.200456 -118.359353 349 722ft 5kts
20-Nov-20 16:32 34.202721 -118.358959 346 730ft 9kts
20-Nov-20 16:33 34.206467 -118.359998 346 744ft 16kts
20-Nov-20 16:34 34.210847 -118.361204 346 766ft 15kts
20-Nov-20 16:35 34.211926 -118.361346 34 768ft 0kts
20-Nov-20 16:36 34.211449 -118.360233 166 764ft 21kts
20-Nov-20 16:37 34.183742 -118.362684 223 2009ft 140kts
20-Nov-20 16:38 34.158861 -118.396006 224 4603ft 131kts
20-Nov-20 16:39 34.162203 -118.434158 308 6643ft 146kts
20-Nov-20 16:40 34.190861 -118.470367 309 8908ft 152kts
20-Nov-20 16:41 34.219650 -118.505846 310 11709ft 145kts
20-Nov-20 16:42 34.248466 -118.541101 307 14406ft 148kts
20-Nov-20 16:43 34.277444 -118.576684 304 16918ft 147kts
20-Nov-20 16:44 34.306522 -118.612420 302 19535ft 148kts
20-Nov-20 16:45 34.346924 -118.634632 320 22045ft 162kts
20-Nov-20 16:46 34.389047 -118.655534 319 24137ft 174kts
20-Nov-20 16:47 34.445851 -118.683812 324 24148ft 245kts
20-Nov-20 16:48 34.513055 -118.716921 325 24125ft 264kts
20-Nov-20 16:49 34.582934 -118.751479 325 24126ft 269kts
20-Nov-20 16:50 34.653570 -118.786507 325 24189ft 269kts
20-Nov-20 16:51 34.725381 -118.822222 325 24253ft 278kts
20-Nov-20 16:52 34.798894 -118.858881 324 24245ft 281kts
20-Nov-20 16:53 34.854381 -118.919745 306 24242ft 264kts
20-Nov-20 16:54 34.908359 -118.982447 306 24246ft 264kts
20-Nov-20 16:55 34.962544 -119.045493 305 24239ft 265kts
20-Nov-20 16:56 35.016700 -119.108647 305 24238ft 267kts
20-Nov-20 16:57 35.071209 -119.172341 305 24238ft 267kts
20-Nov-20 16:59 35.125682 -119.236100 305 24233ft 267kts
20-Nov-20 17:00 35.179752 -119.299524 305 24232ft 267kts
20-Nov-20 17:01 35.234170 -119.363462 305 24231ft 267kts
20-Nov-20 17:02 35.288734 -119.427713 305 24231ft 267kts
20-Nov-20 17:03 35.342857 -119.491556 305 24230ft 267kts
20-Nov-20 17:04 35.397137 -119.555725 305 24233ft 266kts
20-Nov-20 17:05 35.451432 -119.620039 305 24235ft 266kts
20-Nov-20 17:06 35.505571 -119.684289 305 24251ft 267kts
20-Nov-20 17:07 35.559908 -119.748893 305 24250ft 267kts
20-Nov-20 17:08 35.614702 -119.814190 305 24241ft 268kts
20-Nov-20 17:09 35.669405 -119.879498 305 24228ft 268kts
20-Nov-20 17:10 35.724103 -119.944927 305 24224ft 267kts
20-Nov-20 17:11 35.778748 -120.010438 305 24233ft 267kts
20-Nov-20 17:12 35.833187 -120.075823 305 24237ft 267kts
20-Nov-20 17:13 35.887828 -120.141593 305 24233ft 267kts
20-Nov-20 17:13 35.934244 -120.197569 304 24235ft 267kts
20-Nov-20 17:15 35.999080 -120.276079 305 24246ft 267kts
20-Nov-20 17:16 36.054601 -120.343152 305 24230ft 267kts
20-Nov-20 17:16 36.100121 -120.398378 305 24221ft 267kts
20-Nov-20 17:18 36.164020 -120.476073 305 24204ft 267kts
20-Nov-20 17:18 36.209288 -120.531221 305 24210ft 266kts
20-Nov-20 17:19 36.263608 -120.597534 305 24213ft 266kts
20-Nov-20 17:20 36.317762 -120.663790 304 24223ft 266kts
20-Nov-20 17:21 36.372102 -120.730401 304 24223ft 267kts
20-Nov-20 17:22 36.426581 -120.797320 304 24234ft 267kts
20-Nov-20 17:23 36.481679 -120.865127 304 24242ft 267kts
20-Nov-20 17:24 36.535262 -120.931233 304 24240ft 267kts
20-Nov-20 17:25 36.589108 -120.997839 304 23955ft 276kts
20-Nov-20 17:26 36.644475 -121.066411 305 22419ft 271kts
20-Nov-20 17:27 36.698701 -121.133740 306 20879ft 270kts
20-Nov-20 17:28 36.753145 -121.201479 307 19336ft 271kts
20-Nov-20 17:29 36.808099 -121.269980 308 17785ft 273kts
20-Nov-20 17:30 36.863247 -121.338879 309 16234ft 275kts
20-Nov-20 17:31 36.918799 -121.408431 310 14683ft 277kts
20-Nov-20 17:32 36.974652 -121.478524 312 13136ft 279kts
20-Nov-20 17:33 37.031096 -121.549460 313 11583ft 281kts
20-Nov-20 17:34 37.086560 -121.616720 315 9988ft 234kts
20-Nov-20 17:35 37.131109 -121.671986 315 6884ft 218kts
20-Nov-20 17:36 37.174231 -121.724038 319 4220ft 194kts
20-Nov-20 17:37 37.214898 -121.768340 319 3834ft 187kts
20-Nov-20 17:38 37.253791 -121.810461 318 3381ft 184kts
20-Nov-20 17:39 37.280838 -121.840128 318 1970ft 102kts
20-Nov-20 17:40 37.298549 -121.859544 317 1579ft 81kts
20-Nov-20 17:41 37.315431 -121.878063 317 1140ft 76kts
20-Nov-20 17:42 37.331734 -121.895936 317 743ft 81kts
20-Nov-20 17:43 37.348672 -121.914553 318 290ft 81kts
20-Nov-20 17:44 37.361614 -121.928706 318 49ft 21kts
20-Nov-20 17:45 37.361956 -121.931025 237 48ft 8kts
20-Nov-20 17:46 37.359334 -121.930669 138 50ft 13kts
20-Nov-20 17:47 37.357498 -121.929973 17 54ft 4kts
20-Nov-20 17:48 37.357660 -121.929773 47 54ft 0kts
20-Nov-20 17:49 37.357660 -121.929773 47 54ft 0kts
20-Nov-20 17:50 37.357660 -121.929773 47 54ft 0kts
20-Nov-20 17:51 37.357660 -121.929773 47 54ft 0kts
20-Nov-20 17:52 37.357660 -121.929773 47 54ft 0kts
20-Nov-20 17:53 37.357660 -121.929773 47 54ft 0kts
20-Nov-20 17:54 37.357660 -121.929773 47 54ft 0kts
20-Nov-20 17:55 37.357660 -121.929773 47 54ft 0kts
20-Nov-20 17:56 37.357660 -121.929773 47 54ft 0kts
20-Nov-20 17:57 37.357660 -121.929773 47 54ft 0kts
20-Nov-20 17:58 37.357660 -121.929773 47 54ft 0kts

Navigation Log

Ident Type
Flight plan parsing failed, navigation log unavailable